Time;durP1;ratioP1;P1;durP2;ratioP2;P2;SDS_P1;SDS_P2;PMS_P1;PMS_P2;Temp;Humidity;BMP_temperature;BMP_pressure;BME280_temperature;BME280_humidity;BME280_pressure;Samples;Min_cycle;Max_cycle;Signal;HPM_P1;HPM_P2
2024/04/10 00:02:08;;;;;;;;;;;19.00;68.70;;;;;;5393890;26;1578;-73
2024/04/10 00:04:33;;;;;;;;;;;19.10;68.80;;;;;;5393521;26;1416;-73
2024/04/10 00:06:58;;;;;;;;;;;19.00;68.70;;;;;;5362869;26;1486;-73
2024/04/10 00:09:24;;;;;;;;;;;19.00;68.70;;;;;;5367978;26;1062;-73
2024/04/10 00:11:50;;;;;;;;;;;19.00;68.70;;;;;;5391794;26;1117;-73
2024/04/10 00:14:16;;;;;;;;;;;19.00;68.70;;;;;;5389276;26;1858;-73
2024/04/10 00:16:41;;;;;;;;;;;19.00;68.70;;;;;;5419633;26;1753;-73
2024/04/10 00:19:07;;;;;;;;;;;19.00;68.70;;;;;;5396610;26;1741;-73
2024/04/10 00:21:35;;;;;;;;;;;19.00;68.70;;;;;;5418251;26;1474;-72
2024/04/10 00:24:00;;;;;;;;;;;19.00;68.70;;;;;;5376100;26;1733;-71
2024/04/10 00:26:28;;;;;;;;;;;19.00;68.70;;;;;;5391870;26;1637;-72
2024/04/10 00:28:54;;;;;;;;;;;19.00;68.70;;;;;;5391004;26;1701;-72
2024/04/10 00:31:19;;;;;;;;;;;19.00;68.70;;;;;;5418190;26;1856;-72
2024/04/10 00:33:45;;;;;;;;;;;19.00;68.70;;;;;;5389112;26;1868;-73
2024/04/10 00:36:11;;;;;;;;;;;19.00;68.70;;;;;;5416319;26;1973;-71
2024/04/10 00:38:36;;;;;;;;;;;19.00;68.80;;;;;;5416150;26;1757;-72
2024/04/10 00:41:03;;;;;;;;;;;19.00;68.80;;;;;;5388852;26;1379;-72
2024/04/10 00:43:28;;;;;;;;;;;19.00;68.70;;;;;;5389032;26;1455;-73
2024/04/10 00:45:55;;;;;;;;;;;19.00;68.70;;;;;;5389505;26;1635;-72
2024/04/10 00:48:21;;;;;;;;;;;19.00;68.80;;;;;;5379476;26;2072;-72
2024/04/10 00:50:46;;;;;;;;;;;19.00;68.80;;;;;;5397839;26;1578;-73
2024/04/10 00:53:12;;;;;;;;;;;19.00;68.80;;;;;;5418735;26;1410;-72
2024/04/10 00:55:38;;;;;;;;;;;19.00;68.80;;;;;;5392652;26;1861;-72
2024/04/10 00:58:04;;;;;;;;;;;19.00;68.80;;;;;;5420084;26;1758;-72
2024/04/10 01:00:30;;;;;;;;;;;19.00;68.80;;;;;;5390021;26;1609;-72
2024/04/10 01:02:56;;;;;;;;;;;19.00;68.80;;;;;;5398173;26;1924;-73
2024/04/10 01:05:21;;;;;;;;;;;19.00;68.80;;;;;;5412891;26;1795;-72
2024/04/10 01:07:47;;;;;;;;;;;19.00;68.80;;;;;;5390903;26;1827;-73
2024/04/10 01:10:12;;;;;;;;;;;19.00;68.80;;;;;;5395099;26;1797;-72
2024/04/10 01:12:39;;;;;;;;;;;19.00;68.80;;;;;;5397294;26;1884;-72
2024/04/10 01:15:07;;;;;;;;;;;19.00;68.80;;;;;;5378652;26;1892;-73
2024/04/10 01:17:33;;;;;;;;;;;19.00;68.80;;;;;;5377057;26;1805;-73
2024/04/10 01:19:58;;;;;;;;;;;19.00;68.80;;;;;;5395088;26;1720;-72
2024/04/10 01:22:24;;;;;;;;;;;19.00;68.80;;;;;;5392347;26;1678;-73
2024/04/10 01:24:51;;;;;;;;;;;19.00;68.80;;;;;;5394826;26;1555;-73
2024/04/10 01:27:17;;;;;;;;;;;19.00;68.80;;;;;;5390637;26;1684;-72
2024/04/10 01:29:42;;;;;;;;;;;19.00;68.80;;;;;;5395914;26;1535;-73
2024/04/10 01:32:07;;;;;;;;;;;19.00;68.80;;;;;;5423733;26;1735;-73
2024/04/10 01:34:33;;;;;;;;;;;19.00;68.80;;;;;;5380631;26;1861;-73
2024/04/10 01:36:58;;;;;;;;;;;19.00;68.80;;;;;;5402508;26;1454;-71
2024/04/10 01:39:24;;;;;;;;;;;19.00;68.80;;;;;;5404951;26;1649;-73
2024/04/10 01:41:50;;;;;;;;;;;19.00;68.80;;;;;;5424091;26;1593;-71
2024/04/10 01:44:15;;;;;;;;;;;19.00;68.80;;;;;;5391425;26;1637;-71
2024/04/10 01:46:41;;;;;;;;;;;19.00;68.80;;;;;;5398129;26;1874;-72
2024/04/10 01:49:06;;;;;;;;;;;19.00;68.80;;;;;;5383468;26;1787;-71
2024/04/10 01:51:32;;;;;;;;;;;19.00;68.80;;;;;;5395212;26;1641;-73
2024/04/10 01:53:57;;;;;;;;;;;19.00;68.80;;;;;;5400426;26;1838;-72
2024/04/10 01:56:23;;;;;;;;;;;19.00;68.80;;;;;;5420794;26;1667;-72
2024/04/10 01:58:48;;;;;;;;;;;19.00;68.80;;;;;;5393730;26;1463;-74
2024/04/10 02:01:14;;;;;;;;;;;19.00;68.80;;;;;;5383737;26;1125;-74
2024/04/10 02:03:39;;;;;;;;;;;19.00;68.80;;;;;;5390655;26;1376;-74
2024/04/10 02:06:05;;;;;;;;;;;19.00;68.80;;;;;;5396894;26;1700;-74
2024/04/10 02:08:30;;;;;;;;;;;19.00;68.80;;;;;;5398590;26;1621;-74
2024/04/10 02:10:59;;;;;;;;;;;19.00;69.60;;;;;;5405086;26;1686;-74
2024/04/10 02:13:25;;;;;;;;;;;19.00;68.80;;;;;;5399701;26;1818;-72
2024/04/10 02:15:51;;;;;;;;;;;19.00;68.80;;;;;;5380474;26;1449;-72
2024/04/10 02:18:17;;;;;;;;;;;19.00;68.80;;;;;;5370054;26;1278;-72
2024/04/10 02:20:42;;;;;;;;;;;19.00;68.80;;;;;;5381681;26;1526;-72
2024/04/10 02:23:08;;;;;;;;;;;19.00;68.80;;;;;;5424888;26;1392;-72
2024/04/10 02:25:33;;;;;;;;;;;19.00;68.80;;;;;;5383630;26;1287;-72
2024/04/10 02:27:59;;;;;;;;;;;19.00;68.80;;;;;;5396331;26;1350;-72
2024/04/10 02:30:24;;;;;;;;;;;19.00;68.90;;;;;;5379773;26;1437;-72
2024/04/10 02:32:50;;;;;;;;;;;19.00;68.90;;;;;;5369495;26;1661;-72
2024/04/10 02:35:15;;;;;;;;;;;19.00;68.90;;;;;;5383239;26;1894;-72
2024/04/10 02:37:41;;;;;;;;;;;19.00;68.90;;;;;;5422611;26;1269;-72
2024/04/10 02:40:08;;;;;;;;;;;19.00;68.90;;;;;;5354889;26;1257;-72
2024/04/10 02:42:34;;;;;;;;;;;19.00;68.90;;;;;;5354738;26;1308;-72
2024/04/10 02:44:59;;;;;;;;;;;19.00;68.90;;;;;;5421154;26;1132;-72
2024/04/10 02:47:25;;;;;;;;;;;19.00;68.90;;;;;;5368411;26;1456;-71
2024/04/10 02:49:50;;;;;;;;;;;19.00;68.90;;;;;;5398959;26;1576;-70
2024/04/10 02:52:16;;;;;;;;;;;19.00;68.90;;;;;;5368554;26;1549;-70
2024/04/10 02:54:41;;;;;;;;;;;19.00;68.90;;;;;;5400139;26;2181;-70
2024/04/10 02:57:07;;;;;;;;;;;19.00;68.90;;;;;;5401634;26;1570;-72
2024/04/10 02:59:32;;;;;;;;;;;19.00;68.90;;;;;;5380415;26;1129;-72
2024/04/10 03:01:58;;;;;;;;;;;19.00;68.90;;;;;;5426103;26;1159;-72
2024/04/10 03:04:23;;;;;;;;;;;19.00;68.90;;;;;;5431962;26;1278;-73
2024/04/10 03:06:49;;;;;;;;;;;19.00;68.90;;;;;;5393521;26;1319;-73
2024/04/10 03:09:14;;;;;;;;;;;19.00;68.90;;;;;;5393116;26;1326;-72
2024/04/10 03:11:40;;;;;;;;;;;19.00;68.90;;;;;;5393567;26;1555;-73
2024/04/10 03:14:08;;;;;;;;;;;19.00;68.90;;;;;;5394474;26;1873;-73
2024/04/10 03:16:33;;;;;;;;;;;19.00;68.90;;;;;;5389060;26;1692;-73
2024/04/10 03:18:59;;;;;;;;;;;19.00;68.90;;;;;;5393988;26;1590;-72
2024/04/10 03:21:25;;;;;;;;;;;19.00;68.90;;;;;;5379596;26;1555;-73
2024/04/10 03:23:50;;;;;;;;;;;19.00;69.00;;;;;;5393084;26;1481;-72
2024/04/10 03:26:16;;;;;;;;;;;18.90;68.90;;;;;;5389704;26;1401;-72
2024/04/10 03:28:42;;;;;;;;;;;19.00;68.90;;;;;;5379454;26;1454;-74
2024/04/10 03:31:07;;;;;;;;;;;19.00;69.70;;;;;;5390328;26;1132;-72
2024/04/10 03:33:33;;;;;;;;;;;18.90;68.90;;;;;;5391169;26;1865;-73
2024/04/10 03:35:59;;;;;;;;;;;18.90;68.90;;;;;;5371558;26;1554;-73
2024/04/10 03:38:24;;;;;;;;;;;18.90;68.90;;;;;;5393804;26;1722;-73
2024/04/10 03:40:50;;;;;;;;;;;18.90;68.90;;;;;;5391496;26;1445;-72
2024/04/10 03:43:15;;;;;;;;;;;18.90;68.90;;;;;;5415005;26;1449;-73
2024/04/10 03:45:42;;;;;;;;;;;18.90;68.90;;;;;;5392070;26;1670;-73
2024/04/10 03:48:08;;;;;;;;;;;18.90;68.90;;;;;;5391123;26;1795;-73
2024/04/10 03:50:33;;;;;;;;;;;18.90;68.90;;;;;;5419674;26;1794;-73
2024/04/10 03:52:59;;;;;;;;;;;18.90;68.90;;;;;;5393645;26;1376;-73
2024/04/10 03:55:24;;;;;;;;;;;18.90;68.90;;;;;;5418506;26;1855;-73
2024/04/10 03:57:49;;;;;;;;;;;18.90;68.90;;;;;;5386805;26;1621;-73
2024/04/10 04:00:15;;;;;;;;;;;18.90;68.90;;;;;;5390388;26;1641;-72
2024/04/10 04:02:41;;;;;;;;;;;18.90;68.90;;;;;;5387860;26;1941;-73
2024/04/10 04:05:06;;;;;;;;;;;19.00;69.00;;;;;;5396502;26;1759;-73
2024/04/10 04:07:31;;;;;;;;;;;18.90;68.90;;;;;;5418163;26;1722;-73
2024/04/10 04:09:57;;;;;;;;;;;18.90;68.90;;;;;;5367500;26;1796;-73
2024/04/10 04:12:22;;;;;;;;;;;18.90;68.90;;;;;;5392492;26;1670;-73
2024/04/10 04:14:48;;;;;;;;;;;18.90;68.90;;;;;;5416976;26;1821;-73
2024/04/10 04:17:13;;;;;;;;;;;18.90;68.90;;;;;;5389640;26;1896;-73
2024/04/10 04:19:39;;;;;;;;;;;18.90;68.90;;;;;;5387971;26;1785;-73
2024/04/10 04:22:05;;;;;;;;;;;18.90;68.90;;;;;;5390819;26;1319;-73
2024/04/10 04:24:30;;;;;;;;;;;18.90;68.90;;;;;;5378495;26;1915;-73
2024/04/10 04:26:56;;;;;;;;;;;19.00;69.00;;;;;;5388563;26;1478;-72
2024/04/10 04:29:22;;;;;;;;;;;18.90;68.90;;;;;;5405222;26;1649;-73
2024/04/10 04:31:50;;;;;;;;;;;19.00;69.00;;;;;;5376791;26;1668;-73
2024/04/10 04:34:16;;;;;;;;;;;18.90;68.90;;;;;;5390616;26;1825;-74
2024/04/10 04:36:42;;;;;;;;;;;18.90;69.00;;;;;;5391918;26;1188;-76
2024/04/10 04:39:07;;;;;;;;;;;18.90;68.90;;;;;;5395453;26;1625;-73
2024/04/10 04:41:33;;;;;;;;;;;18.90;69.00;;;;;;5432853;26;1827;-71
2024/04/10 04:43:59;;;;;;;;;;;19.00;69.00;;;;;;5348013;26;1708;-73
2024/04/10 04:46:24;;;;;;;;;;;18.90;69.00;;;;;;5368397;26;1785;-73
2024/04/10 04:48:50;;;;;;;;;;;18.90;69.00;;;;;;5365633;26;1464;-70
2024/04/10 04:51:16;;;;;;;;;;;18.90;69.00;;;;;;5395742;26;1781;-70
2024/04/10 04:53:41;;;;;;;;;;;18.90;69.00;;;;;;5368757;26;1862;-70
2024/04/10 04:56:07;;;;;;;;;;;18.90;69.00;;;;;;5363670;26;1780;-70
2024/04/10 04:58:32;;;;;;;;;;;18.90;69.00;;;;;;5386575;26;1672;-71
2024/04/10 05:00:58;;;;;;;;;;;18.90;69.00;;;;;;5388211;26;1443;-72
2024/04/10 05:06:08;;;;;;;;;;;18.90;69.00;;;;;;5396324;26;1678;-71
2024/04/10 05:08:34;;;;;;;;;;;18.90;69.00;;;;;;5393893;26;1758;-72
2024/04/10 05:11:03;;;;;;;;;;;18.90;69.00;;;;;;5376967;26;1682;-72
2024/04/10 05:13:28;;;;;;;;;;;18.90;69.00;;;;;;5365715;26;1826;-72
2024/04/10 05:15:57;;;;;;;;;;;18.90;69.00;;;;;;5365844;26;1320;-73
2024/04/10 05:18:22;;;;;;;;;;;18.90;69.00;;;;;;5388333;26;1304;-73
2024/04/10 05:20:48;;;;;;;;;;;18.90;69.00;;;;;;5392623;26;1956;-73
2024/04/10 05:23:13;;;;;;;;;;;18.90;69.00;;;;;;5395620;26;929;-74
2024/04/10 05:25:39;;;;;;;;;;;18.90;69.00;;;;;;5393570;26;1449;-72
2024/04/10 05:28:04;;;;;;;;;;;19.00;69.10;;;;;;5396008;26;1839;-72
2024/04/10 05:30:30;;;;;;;;;;;18.90;69.00;;;;;;5370294;26;1568;-72
2024/04/10 05:32:56;;;;;;;;;;;18.90;69.00;;;;;;5420798;26;1753;-71
2024/04/10 05:35:21;;;;;;;;;;;18.90;69.00;;;;;;5377718;26;1833;-71
2024/04/10 05:37:47;;;;;;;;;;;18.90;69.00;;;;;;5424662;26;1937;-71
2024/04/10 05:40:16;;;;;;;;;;;19.00;69.00;;;;;;5373216;26;1464;-72
2024/04/10 05:42:43;;;;;;;;;;;18.90;69.00;;;;;;5395439;26;2018;-72
2024/04/10 05:45:09;;;;;;;;;;;19.00;69.10;;;;;;5391984;26;1774;-71
2024/04/10 05:47:38;;;;;;;;;;;18.90;69.00;;;;;;5392556;26;1703;-72
2024/04/10 05:50:04;;;;;;;;;;;18.90;69.00;;;;;;5389615;26;1925;-71
2024/04/10 05:52:30;;;;;;;;;;;18.90;69.00;;;;;;5367130;26;1746;-72
2024/04/10 05:54:55;;;;;;;;;;;18.90;69.00;;;;;;5366637;26;1829;-73
2024/04/10 05:57:21;;;;;;;;;;;18.90;69.00;;;;;;5416742;26;1698;-72
2024/04/10 05:59:50;;;;;;;;;;;18.90;69.00;;;;;;5420496;26;1682;-71
2024/04/10 06:02:16;;;;;;;;;;;18.90;69.00;;;;;;5379038;26;1442;-72
2024/04/10 06:04:41;;;;;;;;;;;18.90;69.00;;;;;;5395472;26;2485;-71
2024/04/10 06:07:07;;;;;;;;;;;18.90;69.00;;;;;;5393458;26;2665;-71
2024/04/10 06:09:32;;;;;;;;;;;18.90;69.00;;;;;;5394603;26;1536;-72
2024/04/10 06:11:58;;;;;;;;;;;18.90;69.00;;;;;;5390892;26;1729;-72
2024/04/10 06:14:23;;;;;;;;;;;18.90;69.00;;;;;;5394343;26;1879;-74
2024/04/10 06:16:48;;;;;;;;;;;18.90;69.00;;;;;;5418427;26;1542;-73
2024/04/10 06:19:14;;;;;;;;;;;18.90;69.00;;;;;;5391568;26;1357;-76
2024/04/10 06:21:39;;;;;;;;;;;18.90;69.00;;;;;;5403494;26;1499;-76
2024/04/10 06:24:05;;;;;;;;;;;18.90;69.00;;;;;;5398195;26;1846;-77
2024/04/10 06:26:30;;;;;;;;;;;18.90;69.00;;;;;;5397384;26;1812;-78
2024/04/10 06:28:56;;;;;;;;;;;18.90;69.00;;;;;;5379483;26;1452;-77
2024/04/10 06:31:21;;;;;;;;;;;18.90;69.00;;;;;;5427776;26;1946;-78
2024/04/10 06:33:47;;;;;;;;;;;18.90;69.00;;;;;;5399206;26;1880;-74
2024/04/10 06:36:12;;;;;;;;;;;18.90;69.00;;;;;;5393519;26;1395;-74
2024/04/10 06:38:38;;;;;;;;;;;18.90;69.80;;;;;;5397327;26;1764;-72
2024/04/10 06:41:04;;;;;;;;;;;18.90;69.00;;;;;;5389629;26;1576;-74
2024/04/10 06:43:29;;;;;;;;;;;18.90;69.00;;;;;;5420276;26;1749;-75
2024/04/10 06:45:55;;;;;;;;;;;18.90;69.10;;;;;;5418794;26;2020;-76
2024/04/10 06:48:21;;;;;;;;;;;18.90;69.00;;;;;;5377196;26;2059;-73
2024/04/10 06:50:46;;;;;;;;;;;18.90;69.00;;;;;;5393115;26;1904;-70
2024/04/10 06:53:13;;;;;;;;;;;18.90;69.00;;;;;;5388236;26;1978;-74
2024/04/10 06:55:39;;;;;;;;;;;18.90;69.00;;;;;;5390527;26;4962;-73
2024/04/10 06:58:04;;;;;;;;;;;18.90;69.10;;;;;;5420678;26;1541;-74
2024/04/10 07:00:30;;;;;;;;;;;18.90;69.00;;;;;;5393887;26;1762;-74
2024/04/10 07:02:56;;;;;;;;;;;18.90;69.10;;;;;;5371931;26;1654;-73
2024/04/10 07:05:22;;;;;;;;;;;18.90;69.10;;;;;;5405978;26;1420;-75
2024/04/10 07:07:48;;;;;;;;;;;18.90;69.00;;;;;;5351019;26;1836;-73
2024/04/10 07:10:14;;;;;;;;;;;18.90;69.10;;;;;;5397581;26;1874;-76
2024/04/10 07:12:39;;;;;;;;;;;18.90;69.10;;;;;;5385755;26;1355;-75
2024/04/10 07:15:06;;;;;;;;;;;18.90;69.00;;;;;;5424145;26;1841;-75
2024/04/10 07:17:31;;;;;;;;;;;18.90;69.10;;;;;;5391097;26;1739;-75
2024/04/10 07:19:57;;;;;;;;;;;18.90;69.10;;;;;;5392075;26;1787;-74
2024/04/10 07:22:22;;;;;;;;;;;18.90;69.10;;;;;;5393479;26;1991;-74
2024/04/10 07:24:51;;;;;;;;;;;18.90;69.00;;;;;;5389389;26;1988;-73
2024/04/10 07:27:16;;;;;;;;;;;18.90;69.00;;;;;;5393140;26;1384;-74
2024/04/10 07:29:45;;;;;;;;;;;18.90;69.10;;;;;;5394011;26;1533;-74
2024/04/10 07:32:11;;;;;;;;;;;18.90;69.10;;;;;;5390478;26;1633;-72
2024/04/10 07:34:36;;;;;;;;;;;18.90;69.10;;;;;;5391876;26;1863;-72
2024/04/10 07:37:03;;;;;;;;;;;18.90;69.10;;;;;;5390711;26;1866;-73
2024/04/10 07:39:28;;;;;;;;;;;18.90;69.00;;;;;;5417930;26;1812;-72
2024/04/10 07:41:54;;;;;;;;;;;18.90;69.10;;;;;;5392989;26;1549;-72
2024/04/10 07:44:20;;;;;;;;;;;18.90;69.00;;;;;;5388766;26;1946;-73
2024/04/10 07:46:45;;;;;;;;;;;18.90;69.00;;;;;;5391428;26;1934;-72
2024/04/10 07:49:11;;;;;;;;;;;18.90;69.00;;;;;;5419668;26;1419;-73
2024/04/10 07:51:36;;;;;;;;;;;18.90;69.00;;;;;;5391660;26;1774;-71
2024/04/10 07:54:02;;;;;;;;;;;18.90;69.10;;;;;;5417597;26;1865;-74
2024/04/10 07:56:27;;;;;;;;;;;18.90;69.10;;;;;;5420526;26;1900;-74
2024/04/10 07:58:53;;;;;;;;;;;18.90;69.10;;;;;;5349717;26;1909;-73
2024/04/10 08:01:19;;;;;;;;;;;18.90;69.10;;;;;;5391475;26;1677;-73
2024/04/10 08:03:45;;;;;;;;;;;18.90;69.10;;;;;;5391968;26;1832;-73
2024/04/10 08:06:11;;;;;;;;;;;18.90;69.10;;;;;;5387730;26;1849;-73
2024/04/10 08:08:39;;;;;;;;;;;18.90;69.10;;;;;;5419501;26;1621;-73
2024/04/10 08:11:07;;;;;;;;;;;18.90;69.10;;;;;;5387040;26;1564;-73
2024/04/10 08:13:33;;;;;;;;;;;18.90;69.10;;;;;;5416198;26;1876;-73
2024/04/10 08:16:05;;;;;;;;;;;18.90;69.00;;;;;;5413668;26;1461;-73
2024/04/10 08:20:04;;;;;;;;;;;18.90;69.00;;;;;;5508816;25;1999;-71
2024/04/10 08:22:29;;;;;;;;;;;18.90;69.00;;;;;;5506150;25;1881;-71
2024/04/10 08:24:55;;;;;;;;;;;18.90;68.90;;;;;;5507516;25;1538;-72
2024/04/10 08:27:20;;;;;;;;;;;18.90;68.90;;;;;;5477618;25;1705;-72
2024/04/10 08:29:49;;;;;;;;;;;18.90;68.90;;;;;;5464221;26;1857;-72
2024/04/10 08:32:14;;;;;;;;;;;18.90;68.90;;;;;;5468424;26;1980;-72
2024/04/10 08:34:40;;;;;;;;;;;18.90;68.80;;;;;;5468517;26;1972;-71
2024/04/10 08:37:06;;;;;;;;;;;18.90;68.80;;;;;;5463859;26;2085;-72
2024/04/10 08:39:31;;;;;;;;;;;19.00;68.80;;;;;;5468643;26;2098;-72
2024/04/10 08:41:56;;;;;;;;;;;19.00;68.80;;;;;;5471313;26;1353;-72
2024/04/10 08:44:23;;;;;;;;;;;19.00;68.80;;;;;;5464973;26;1880;-72
2024/04/10 08:46:49;;;;;;;;;;;19.00;68.80;;;;;;5466421;26;1790;-72
2024/04/10 08:49:15;;;;;;;;;;;19.00;68.70;;;;;;5463663;26;1531;-72
2024/04/10 08:51:41;;;;;;;;;;;19.00;68.70;;;;;;5469825;26;1478;-72
2024/04/10 08:54:06;;;;;;;;;;;19.00;68.70;;;;;;5467285;26;1387;-72
2024/04/10 08:56:32;;;;;;;;;;;19.00;68.70;;;;;;5464135;25;1415;-71
2024/04/10 08:58:57;;;;;;;;;;;19.00;68.70;;;;;;5466175;26;1871;-71
2024/04/10 09:01:41;;;;;;;;;;;19.00;68.60;;;;;;5468268;26;1928;-72
2024/04/10 09:04:09;;;;;;;;;;;19.00;68.60;;;;;;5466789;26;1943;-71
2024/04/10 09:06:35;;;;;;;;;;;19.00;68.60;;;;;;5466549;26;1856;-72
2024/04/10 09:09:01;;;;;;;;;;;19.00;68.60;;;;;;5467901;26;1539;-71
2024/04/10 09:11:26;;;;;;;;;;;19.00;68.50;;;;;;5469574;26;2516;-71
2024/04/10 09:14:15;;;;;;;;;;;19.00;68.50;;;;;;5454441;26;2230;-74
2024/04/10 09:16:40;;;;;;;;;;;19.00;68.50;;;;;;5463205;26;2033;-72
2024/04/10 09:19:06;;;;;;;;;;;19.00;68.50;;;;;;5466955;26;1844;-71
2024/04/10 09:21:32;;;;;;;;;;;19.10;68.60;;;;;;5463365;26;1800;-72
2024/04/10 09:23:58;;;;;;;;;;;19.00;68.50;;;;;;5461700;26;2482;-70
2024/04/10 09:26:23;;;;;;;;;;;19.00;68.50;;;;;;5467552;25;1750;-70
2024/04/10 09:28:48;;;;;;;;;;;19.00;68.50;;;;;;5457712;26;2550;-70
2024/04/10 09:31:21;;;;;;;;;;;19.00;68.50;;;;;;5449842;26;1826;-70
2024/04/10 09:33:46;;;;;;;;;;;19.00;68.50;;;;;;5414416;26;1404;-71
2024/04/10 09:36:12;;;;;;;;;;;19.00;68.40;;;;;;5451793;26;1529;-70
2024/04/10 09:38:37;;;;;;;;;;;19.00;68.40;;;;;;5449426;26;1872;-70
2024/04/10 09:41:03;;;;;;;;;;;19.10;68.50;;;;;;5423652;26;1591;-71
2024/04/10 09:43:29;;;;;;;;;;;19.10;68.50;;;;;;5449582;26;1666;-70
2024/04/10 09:45:56;;;;;;;;;;;19.10;68.50;;;;;;5414409;26;1771;-70
2024/04/10 09:48:21;;;;;;;;;;;19.00;68.40;;;;;;5449819;26;1584;-70
2024/04/10 09:50:46;;;;;;;;;;;19.10;68.50;;;;;;5451890;26;1813;-71
2024/04/10 09:53:12;;;;;;;;;;;19.10;68.40;;;;;;5451729;26;1382;-71
2024/04/10 09:55:38;;;;;;;;;;;19.10;68.50;;;;;;5448426;26;1829;-71
2024/04/10 09:58:07;;;;;;;;;;;19.10;68.40;;;;;;5448263;26;1930;-73
2024/04/10 10:00:36;;;;;;;;;;;19.10;68.40;;;;;;5451888;26;1658;-70
2024/04/10 10:03:05;;;;;;;;;;;19.10;68.40;;;;;;5446970;26;1390;-70
2024/04/10 10:05:30;;;;;;;;;;;19.10;68.40;;;;;;5448692;26;1879;-71
2024/04/10 10:08:02;;;;;;;;;;;19.10;68.40;;;;;;5445115;26;1594;-71
2024/04/10 10:10:28;;;;;;;;;;;19.10;68.40;;;;;;5449806;26;1406;-71
2024/04/10 10:13:04;;;;;;;;;;;19.10;68.40;;;;;;5449576;26;1787;-71
2024/04/10 10:15:29;;;;;;;;;;;19.10;68.40;;;;;;5456195;26;1919;-72
2024/04/10 10:17:55;;;;;;;;;;;19.10;68.40;;;;;;5450644;26;1825;-72
2024/04/10 10:20:20;;;;;;;;;;;19.10;68.40;;;;;;5447818;26;1817;-71
2024/04/10 10:23:01;;;;;;;;;;;19.10;68.40;;;;;;5450213;26;1869;-71
2024/04/10 10:25:27;;;;;;;;;;;19.10;68.40;;;;;;5448324;26;1769;-71
2024/04/10 10:28:06;;;;;;;;;;;19.10;69.10;;;;;;5450001;26;1920;-71
2024/04/10 10:30:32;;;;;;;;;;;19.10;68.30;;;;;;5451542;26;1782;-71
2024/04/10 10:33:01;;;;;;;;;;;19.10;68.40;;;;;;5456571;26;1639;-71
2024/04/10 10:35:26;;;;;;;;;;;19.10;68.30;;;;;;5454253;26;1612;-70
2024/04/10 10:37:52;;;;;;;;;;;19.10;68.40;;;;;;5449183;26;1932;-70
2024/04/10 10:40:17;;;;;;;;;;;19.10;68.30;;;;;;5448379;26;1836;-71
2024/04/10 10:42:43;;;;;;;;;;;19.10;68.30;;;;;;5451598;26;1664;-70
2024/04/10 10:45:08;;;;;;;;;;;19.10;68.30;;;;;;5450374;26;1801;-71
2024/04/10 10:47:40;;;;;;;;;;;19.10;68.30;;;;;;5450533;26;1583;-70
2024/04/10 10:50:05;;;;;;;;;;;19.10;68.30;;;;;;5449745;26;1864;-71
2024/04/10 10:52:31;;;;;;;;;;;19.10;68.30;;;;;;5450021;26;1655;-70
2024/04/10 10:54:57;;;;;;;;;;;19.10;68.30;;;;;;5451796;26;1485;-71
2024/04/10 10:57:22;;;;;;;;;;;19.10;68.30;;;;;;5452773;26;1896;-72
2024/04/10 10:59:47;;;;;;;;;;;19.10;68.30;;;;;;5450160;26;1842;-72
2024/04/10 11:02:14;;;;;;;;;;;19.10;68.30;;;;;;5449396;26;1843;-72
2024/04/10 11:04:39;;;;;;;;;;;19.10;68.30;;;;;;5417949;26;1969;-71
2024/04/10 11:07:05;;;;;;;;;;;19.10;68.30;;;;;;5447329;26;1565;-72
2024/04/10 11:09:32;;;;;;;;;;;19.10;68.30;;;;;;5445700;26;1847;-71
2024/04/10 11:11:58;;;;;;;;;;;19.10;68.30;;;;;;5451179;26;1492;-71
2024/04/10 11:14:23;;;;;;;;;;;19.10;68.30;;;;;;5441010;26;2555;-72
2024/04/10 11:17:03;;;;;;;;;;;19.10;68.30;;;;;;5447380;26;1989;-72
2024/04/10 11:19:28;;;;;;;;;;;19.10;68.30;;;;;;5412309;26;2591;-72
2024/04/10 11:21:54;;;;;;;;;;;19.10;68.30;;;;;;5442129;26;2416;-71
2024/04/10 11:24:20;;;;;;;;;;;19.10;68.30;;;;;;5451533;26;1855;-72
2024/04/10 11:26:46;;;;;;;;;;;19.10;68.30;;;;;;5452752;26;1716;-72
2024/04/10 11:29:11;;;;;;;;;;;19.10;68.30;;;;;;5449141;26;1753;-72
2024/04/10 11:31:37;;;;;;;;;;;19.10;68.20;;;;;;5442719;26;2857;-71
2024/04/10 11:34:02;;;;;;;;;;;19.10;68.30;;;;;;5445385;26;2661;-71
2024/04/10 11:36:28;;;;;;;;;;;19.10;68.30;;;;;;5447866;26;1434;-71
2024/04/10 11:38:53;;;;;;;;;;;19.10;68.20;;;;;;5446285;26;1853;-71
2024/04/10 11:41:19;;;;;;;;;;;19.10;68.20;;;;;;5447727;26;1448;-71
2024/04/10 11:43:45;;;;;;;;;;;19.10;68.20;;;;;;5449585;26;1374;-71
2024/04/10 11:46:10;;;;;;;;;;;19.10;68.20;;;;;;5448031;26;1619;-70
2024/04/10 11:48:37;;;;;;;;;;;19.10;68.20;;;;;;5450036;26;1064;-69
2024/04/10 11:51:02;;;;;;;;;;;19.10;68.20;;;;;;5444747;26;1431;-70
2024/04/10 11:53:29;;;;;;;;;;;19.10;68.20;;;;;;5442157;26;1494;-70
2024/04/10 11:55:54;;;;;;;;;;;19.10;68.20;;;;;;5445679;26;1866;-70
2024/04/10 11:58:20;;;;;;;;;;;19.10;68.20;;;;;;5446715;26;2186;-70
2024/04/10 12:00:46;;;;;;;;;;;19.10;68.20;;;;;;5447076;26;1889;-69
2024/04/10 12:03:12;;;;;;;;;;;19.10;68.20;;;;;;5450390;26;1862;-69
2024/04/10 12:05:37;;;;;;;;;;;19.10;68.20;;;;;;5448262;26;1612;-70
2024/04/10 12:08:03;;;;;;;;;;;19.10;68.20;;;;;;5447633;26;1878;-73
2024/04/10 12:10:31;;;;;;;;;;;19.10;68.20;;;;;;5449713;26;855;-71
2024/04/10 12:12:57;;;;;;;;;;;19.10;68.20;;;;;;5448742;26;1366;-70
2024/04/10 12:15:22;;;;;;;;;;;19.10;68.20;;;;;;5453054;26;1441;-71
2024/04/10 12:17:48;;;;;;;;;;;19.10;68.20;;;;;;5451716;26;1960;-70
2024/04/10 12:20:13;;;;;;;;;;;19.10;68.20;;;;;;5451546;26;1684;-69
2024/04/10 12:22:40;;;;;;;;;;;19.10;68.20;;;;;;5445744;26;1451;-70
2024/04/10 12:25:05;;;;;;;;;;;19.10;68.20;;;;;;5447276;26;1876;-70
2024/04/10 12:27:31;;;;;;;;;;;19.10;68.20;;;;;;5450724;26;2001;-70
2024/04/10 12:29:57;;;;;;;;;;;19.10;68.20;;;;;;5445520;26;1793;-71
2024/04/10 12:32:24;;;;;;;;;;;19.10;68.10;;;;;;5434004;26;2227;-71
2024/04/10 12:34:51;;;;;;;;;;;19.10;68.10;;;;;;5446498;26;1784;-70
2024/04/10 12:40:01;;;;;;;;;;;19.10;68.10;;;;;;5448660;26;1896;-71
2024/04/10 12:42:27;;;;;;;;;;;19.10;68.10;;;;;;5443934;26;1678;-71
2024/04/10 12:44:52;;;;;;;;;;;19.10;68.10;;;;;;5448638;26;2011;-70
2024/04/10 12:47:18;;;;;;;;;;;19.10;68.10;;;;;;5446118;26;1577;-70
2024/04/10 12:49:43;;;;;;;;;;;19.10;68.10;;;;;;5445696;26;1624;-69
2024/04/10 12:52:09;;;;;;;;;;;19.10;68.20;;;;;;5447008;26;1744;-70
2024/04/10 12:54:35;;;;;;;;;;;19.10;68.10;;;;;;5451288;26;1863;-70
2024/04/10 12:57:00;;;;;;;;;;;19.10;68.10;;;;;;5445710;26;1430;-70
2024/04/10 12:59:26;;;;;;;;;;;19.10;68.90;;;;;;5448333;26;1871;-70
2024/04/10 13:01:53;;;;;;;;;;;19.10;68.10;;;;;;5445791;26;1606;-70
2024/04/10 13:04:19;;;;;;;;;;;19.10;68.20;;;;;;5445139;26;1475;-70
2024/04/10 13:06:45;;;;;;;;;;;19.20;68.30;;;;;;5450726;26;1566;-70
2024/04/10 13:09:12;;;;;;;;;;;19.20;68.30;;;;;;5451013;26;1761;-70
2024/04/10 13:11:37;;;;;;;;;;;19.20;68.30;;;;;;5450550;26;1799;-70
2024/04/10 13:14:03;;;;;;;;;;;19.20;68.20;;;;;;5450311;26;1562;-70
2024/04/10 13:16:28;;;;;;;;;;;19.20;68.20;;;;;;5451445;26;1892;-70
2024/04/10 13:18:54;;;;;;;;;;;19.20;68.20;;;;;;5452434;26;1818;-70
2024/04/10 13:21:19;;;;;;;;;;;19.20;68.20;;;;;;5451933;26;1584;-70
2024/04/10 13:23:46;;;;;;;;;;;19.20;68.20;;;;;;5447580;26;1619;-70
2024/04/10 13:26:12;;;;;;;;;;;19.20;68.20;;;;;;5454032;26;1459;-69
2024/04/10 13:28:38;;;;;;;;;;;19.20;68.10;;;;;;5448313;26;1746;-69
2024/04/10 13:31:10;;;;;;;;;;;19.20;68.20;;;;;;5450314;26;1849;-70
2024/04/10 13:33:39;;;;;;;;;;;19.20;68.20;;;;;;5447524;26;1748;-69
2024/04/10 13:36:05;;;;;;;;;;;19.20;68.20;;;;;;5450490;26;1453;-70
2024/04/10 13:38:31;;;;;;;;;;;19.20;68.20;;;;;;5453087;26;1862;-70
2024/04/10 13:41:00;;;;;;;;;;;19.20;68.20;;;;;;5450404;26;1426;-70
2024/04/10 13:43:26;;;;;;;;;;;19.20;68.20;;;;;;5447729;26;1957;-71
2024/04/10 13:45:51;;;;;;;;;;;19.20;68.20;;;;;;5449069;26;1495;-71
2024/04/10 13:48:17;;;;;;;;;;;19.20;68.20;;;;;;5446188;26;2572;-70
2024/04/10 13:50:42;;;;;;;;;;;19.20;69.00;;;;;;5445631;26;1429;-71
2024/04/10 13:53:08;;;;;;;;;;;19.20;68.20;;;;;;5448321;26;1792;-72
2024/04/10 13:55:33;;;;;;;;;;;19.20;68.20;;;;;;5445640;26;1909;-71
2024/04/10 13:57:59;;;;;;;;;;;19.20;68.20;;;;;;5452265;26;1861;-74
2024/04/10 14:00:24;;;;;;;;;;;19.20;68.20;;;;;;5450366;26;1622;-71
2024/04/10 14:02:50;;;;;;;;;;;19.20;68.20;;;;;;5449052;26;1883;-70
2024/04/10 14:05:15;;;;;;;;;;;19.20;68.20;;;;;;5448380;26;1882;-70
2024/04/10 14:07:41;;;;;;;;;;;19.20;68.20;;;;;;5442551;26;1378;-70
2024/04/10 14:10:07;;;;;;;;;;;19.20;68.20;;;;;;5445120;26;1623;-70
2024/04/10 14:12:32;;;;;;;;;;;19.20;68.20;;;;;;5448775;26;1537;-70
2024/04/10 14:14:57;;;;;;;;;;;19.20;68.20;;;;;;5448900;26;1661;-70
2024/04/10 14:17:23;;;;;;;;;;;19.20;68.20;;;;;;5449581;26;1688;-71
2024/04/10 14:19:52;;;;;;;;;;;19.20;68.20;;;;;;5449877;26;1829;-69
2024/04/10 14:22:18;;;;;;;;;;;19.20;68.30;;;;;;5445370;26;1932;-70
2024/04/10 14:24:44;;;;;;;;;;;19.20;68.20;;;;;;5447936;26;1330;-69
2024/04/10 14:27:09;;;;;;;;;;;19.20;68.20;;;;;;5447106;26;1456;-71
2024/04/10 14:29:35;;;;;;;;;;;19.20;68.20;;;;;;5417071;26;1868;-71
2024/04/10 14:32:01;;;;;;;;;;;19.10;68.20;;;;;;5450358;26;1478;-70